sensor_id;sensor_type;location;lat;lon;timestamp;temperature;humidity
38090;DHT22;23904;52.322;10.232;2023-12-29T00:02:10;10.20;99.90
38090;DHT22;23904;52.322;10.232;2023-12-29T00:04:36;10.20;99.90
38090;DHT22;23904;52.322;10.232;2023-12-29T00:07:02;10.20;99.90
38090;DHT22;23904;52.322;10.232;2023-12-29T00:09:28;10.10;99.90
38090;DHT22;23904;52.322;10.232;2023-12-29T00:11:53;10.10;99.90
38090;DHT22;23904;52.322;10.232;2023-12-29T00:14:22;10.10;99.90
38090;DHT22;23904;52.322;10.232;2023-12-29T00:16:47;10.10;99.90
38090;DHT22;23904;52.322;10.232;2023-12-29T00:19:13;10.10;99.90
38090;DHT22;23904;52.322;10.232;2023-12-29T00:21:38;10.10;99.90
38090;DHT22;23904;52.322;10.232;2023-12-29T00:24:04;10.10;99.90
38090;DHT22;23904;52.322;10.232;2023-12-29T00:26:31;10.10;99.90
38090;DHT22;23904;52.322;10.232;2023-12-29T00:28:56;10.10;99.90
38090;DHT22;23904;52.322;10.232;2023-12-29T00:31:23;10.20;99.90
38090;DHT22;23904;52.322;10.232;2023-12-29T00:33:48;10.20;99.90
38090;DHT22;23904;52.322;10.232;2023-12-29T00:36:18;10.10;99.90
38090;DHT22;23904;52.322;10.232;2023-12-29T00:38:45;10.10;99.90
38090;DHT22;23904;52.322;10.232;2023-12-29T00:41:11;10.20;99.90
38090;DHT22;23904;52.322;10.232;2023-12-29T00:43:36;10.20;99.90
38090;DHT22;23904;52.322;10.232;2023-12-29T00:46:03;10.10;99.90
38090;DHT22;23904;52.322;10.232;2023-12-29T00:48:29;10.20;99.90
38090;DHT22;23904;52.322;10.232;2023-12-29T00:50:55;10.20;99.90
38090;DHT22;23904;52.322;10.232;2023-12-29T00:53:20;10.20;99.90
38090;DHT22;23904;52.322;10.232;2023-12-29T00:55:46;10.20;99.90
38090;DHT22;23904;52.322;10.232;2023-12-29T00:58:12;10.30;99.90
38090;DHT22;23904;52.322;10.232;2023-12-29T01:00:37;10.40;99.90
38090;DHT22;23904;52.322;10.232;2023-12-29T01:03:03;10.40;99.90
38090;DHT22;23904;52.322;10.232;2023-12-29T01:05:28;10.50;99.90
38090;DHT22;23904;52.322;10.232;2023-12-29T01:07:54;10.50;99.90
38090;DHT22;23904;52.322;10.232;2023-12-29T01:10:20;10.40;99.90
38090;DHT22;23904;52.322;10.232;2023-12-29T01:12:46;10.40;99.90
38090;DHT22;23904;52.322;10.232;2023-12-29T01:15:12;10.40;99.90
38090;DHT22;23904;52.322;10.232;2023-12-29T01:17:37;10.50;99.90
38090;DHT22;23904;52.322;10.232;2023-12-29T01:20:03;10.50;99.90
38090;DHT22;23904;52.322;10.232;2023-12-29T01:22:29;10.40;99.90
38090;DHT22;23904;52.322;10.232;2023-12-29T01:24:55;10.40;99.90
38090;DHT22;23904;52.322;10.232;2023-12-29T01:27:21;10.50;99.90
38090;DHT22;23904;52.322;10.232;2023-12-29T01:29:46;10.50;99.90
38090;DHT22;23904;52.322;10.232;2023-12-29T01:32:12;10.50;99.90
38090;DHT22;23904;52.322;10.232;2023-12-29T01:34:37;10.40;99.90
38090;DHT22;23904;52.322;10.232;2023-12-29T01:37:03;10.50;99.90
38090;DHT22;23904;52.322;10.232;2023-12-29T01:39:33;10.50;99.90
38090;DHT22;23904;52.322;10.232;2023-12-29T01:42:00;10.50;99.90
38090;DHT22;23904;52.322;10.232;2023-12-29T01:44:25;10.50;99.90
38090;DHT22;23904;52.322;10.232;2023-12-29T01:46:54;10.60;99.90
38090;DHT22;23904;52.322;10.232;2023-12-29T01:49:21;10.60;99.90
38090;DHT22;23904;52.322;10.232;2023-12-29T01:51:59;10.60;99.90
38090;DHT22;23904;52.322;10.232;2023-12-29T01:54:28;10.60;99.90
38090;DHT22;23904;52.322;10.232;2023-12-29T01:57:00;10.60;99.90
38090;DHT22;23904;52.322;10.232;2023-12-29T01:59:27;10.50;99.90
38090;DHT22;23904;52.322;10.232;2023-12-29T02:01:54;10.50;99.90
38090;DHT22;23904;52.322;10.232;2023-12-29T02:04:26;10.50;99.90
38090;DHT22;23904;52.322;10.232;2023-12-29T02:06:55;10.50;99.90
38090;DHT22;23904;52.322;10.232;2023-12-29T02:09:21;10.50;99.90
38090;DHT22;23904;52.322;10.232;2023-12-29T02:11:47;10.40;99.90
38090;DHT22;23904;52.322;10.232;2023-12-29T02:14:14;10.30;99.90
38090;DHT22;23904;52.322;10.232;2023-12-29T02:17:01;10.20;99.90
38090;DHT22;23904;52.322;10.232;2023-12-29T02:19:43;10.20;99.90
38090;DHT22;23904;52.322;10.232;2023-12-29T02:22:11;10.20;99.90
38090;DHT22;23904;52.322;10.232;2023-12-29T02:24:37;10.20;99.90
38090;DHT22;23904;52.322;10.232;2023-12-29T02:30:09;10.30;99.90
38090;DHT22;23904;52.322;10.232;2023-12-29T02:32:41;10.20;99.90
38090;DHT22;23904;52.322;10.232;2023-12-29T02:35:11;10.20;99.90
38090;DHT22;23904;52.322;10.232;2023-12-29T02:37:39;10.20;99.90
38090;DHT22;23904;52.322;10.232;2023-12-29T02:40:09;10.20;99.90
38090;DHT22;23904;52.322;10.232;2023-12-29T02:42:35;10.20;99.90
38090;DHT22;23904;52.322;10.232;2023-12-29T02:45:00;10.30;99.90
38090;DHT22;23904;52.322;10.232;2023-12-29T02:47:26;10.30;99.90
38090;DHT22;23904;52.322;10.232;2023-12-29T02:49:52;10.30;99.90
38090;DHT22;23904;52.322;10.232;2023-12-29T02:52:18;10.30;99.90
38090;DHT22;23904;52.322;10.232;2023-12-29T02:54:43;10.30;99.90
38090;DHT22;23904;52.322;10.232;2023-12-29T02:57:09;10.30;99.90
38090;DHT22;23904;52.322;10.232;2023-12-29T02:59:34;10.30;99.90
38090;DHT22;23904;52.322;10.232;2023-12-29T03:02:00;10.30;99.90
38090;DHT22;23904;52.322;10.232;2023-12-29T03:04:25;10.40;99.90
38090;DHT22;23904;52.322;10.232;2023-12-29T03:06:51;10.30;99.90
38090;DHT22;23904;52.322;10.232;2023-12-29T03:09:16;10.40;99.90
38090;DHT22;23904;52.322;10.232;2023-12-29T03:11:42;10.30;99.90
38090;DHT22;23904;52.322;10.232;2023-12-29T03:14:07;10.40;99.90
38090;DHT22;23904;52.322;10.232;2023-12-29T03:16:33;10.40;99.90
38090;DHT22;23904;52.322;10.232;2023-12-29T03:18:58;10.40;99.90
38090;DHT22;23904;52.322;10.232;2023-12-29T03:21:24;10.30;99.90
38090;DHT22;23904;52.322;10.232;2023-12-29T03:23:50;10.30;99.90
38090;DHT22;23904;52.322;10.232;2023-12-29T03:26:15;10.30;99.90
38090;DHT22;23904;52.322;10.232;2023-12-29T03:28:41;10.40;99.90
38090;DHT22;23904;52.322;10.232;2023-12-29T03:31:06;10.50;99.90
38090;DHT22;23904;52.322;10.232;2023-12-29T03:33:32;10.50;99.90
38090;DHT22;23904;52.322;10.232;2023-12-29T03:35:57;10.50;99.90
38090;DHT22;23904;52.322;10.232;2023-12-29T03:38:23;10.50;99.90
38090;DHT22;23904;52.322;10.232;2023-12-29T03:40:48;10.50;99.90
38090;DHT22;23904;52.322;10.232;2023-12-29T03:43:14;10.50;99.90
38090;DHT22;23904;52.322;10.232;2023-12-29T03:45:39;10.50;99.90
38090;DHT22;23904;52.322;10.232;2023-12-29T03:48:05;10.50;99.90
38090;DHT22;23904;52.322;10.232;2023-12-29T03:50:31;10.50;99.90
38090;DHT22;23904;52.322;10.232;2023-12-29T03:52:57;10.50;99.90
38090;DHT22;23904;52.322;10.232;2023-12-29T03:55:22;10.50;99.90
38090;DHT22;23904;52.322;10.232;2023-12-29T03:57:48;10.40;99.90
38090;DHT22;23904;52.322;10.232;2023-12-29T04:00:14;10.40;99.90
38090;DHT22;23904;52.322;10.232;2023-12-29T04:02:40;10.50;99.90
38090;DHT22;23904;52.322;10.232;2023-12-29T04:05:09;10.50;99.90
38090;DHT22;23904;52.322;10.232;2023-12-29T04:07:35;10.50;99.90
38090;DHT22;23904;52.322;10.232;2023-12-29T04:10:00;10.60;99.90
38090;DHT22;23904;52.322;10.232;2023-12-29T04:12:26;10.60;99.90
38090;DHT22;23904;52.322;10.232;2023-12-29T04:14:51;10.60;99.90
38090;DHT22;23904;52.322;10.232;2023-12-29T04:17:17;10.60;99.90
38090;DHT22;23904;52.322;10.232;2023-12-29T04:19:42;10.50;99.90
38090;DHT22;23904;52.322;10.232;2023-12-29T04:22:08;10.40;99.90
38090;DHT22;23904;52.322;10.232;2023-12-29T04:24:34;10.20;99.90
38090;DHT22;23904;52.322;10.232;2023-12-29T04:26:59;10.00;99.90
38090;DHT22;23904;52.322;10.232;2023-12-29T04:29:25;9.90;99.90
38090;DHT22;23904;52.322;10.232;2023-12-29T04:31:51;9.90;99.90
38090;DHT22;23904;52.322;10.232;2023-12-29T04:34:16;9.80;99.90
38090;DHT22;23904;52.322;10.232;2023-12-29T04:36:42;9.80;99.90
38090;DHT22;23904;52.322;10.232;2023-12-29T04:39:08;9.80;99.90
38090;DHT22;23904;52.322;10.232;2023-12-29T04:41:36;9.80;99.90
38090;DHT22;23904;52.322;10.232;2023-12-29T04:44:01;9.80;99.90
38090;DHT22;23904;52.322;10.232;2023-12-29T04:46:27;9.70;99.90
38090;DHT22;23904;52.322;10.232;2023-12-29T04:48:52;9.70;99.90
38090;DHT22;23904;52.322;10.232;2023-12-29T04:51:18;9.70;99.90
38090;DHT22;23904;52.322;10.232;2023-12-29T04:53:44;9.70;99.90
38090;DHT22;23904;52.322;10.232;2023-12-29T04:56:10;9.70;99.90
38090;DHT22;23904;52.322;10.232;2023-12-29T04:58:35;9.70;99.90
38090;DHT22;23904;52.322;10.232;2023-12-29T05:01:01;9.70;99.90
38090;DHT22;23904;52.322;10.232;2023-12-29T05:03:26;9.80;99.90
38090;DHT22;23904;52.322;10.232;2023-12-29T05:05:52;9.80;99.90
38090;DHT22;23904;52.322;10.232;2023-12-29T05:08:17;9.80;99.90
38090;DHT22;23904;52.322;10.232;2023-12-29T05:10:43;9.80;99.90
38090;DHT22;23904;52.322;10.232;2023-12-29T05:13:08;9.90;99.90
38090;DHT22;23904;52.322;10.232;2023-12-29T05:15:34;9.90;99.90
38090;DHT22;23904;52.322;10.232;2023-12-29T05:17:59;9.90;99.90
38090;DHT22;23904;52.322;10.232;2023-12-29T05:20:25;9.90;99.90
38090;DHT22;23904;52.322;10.232;2023-12-29T05:22:51;9.80;99.90
38090;DHT22;23904;52.322;10.232;2023-12-29T05:25:16;9.80;99.90
38090;DHT22;23904;52.322;10.232;2023-12-29T05:27:42;9.80;99.90
38090;DHT22;23904;52.322;10.232;2023-12-29T05:30:07;9.90;99.90
38090;DHT22;23904;52.322;10.232;2023-12-29T05:32:33;9.80;99.90
38090;DHT22;23904;52.322;10.232;2023-12-29T05:34:59;9.80;99.90
38090;DHT22;23904;52.322;10.232;2023-12-29T05:37:24;9.80;99.90
38090;DHT22;23904;52.322;10.232;2023-12-29T05:39:50;9.70;99.90
38090;DHT22;23904;52.322;10.232;2023-12-29T05:42:15;9.60;99.90
38090;DHT22;23904;52.322;10.232;2023-12-29T05:44:41;9.50;99.90
38090;DHT22;23904;52.322;10.232;2023-12-29T05:47:06;9.50;99.90
38090;DHT22;23904;52.322;10.232;2023-12-29T05:49:32;9.50;99.90
38090;DHT22;23904;52.322;10.232;2023-12-29T05:52:03;9.60;99.90
38090;DHT22;23904;52.322;10.232;2023-12-29T05:54:29;9.60;99.90
38090;DHT22;23904;52.322;10.232;2023-12-29T05:56:55;9.60;99.90
38090;DHT22;23904;52.322;10.232;2023-12-29T05:59:20;9.70;99.90
38090;DHT22;23904;52.322;10.232;2023-12-29T06:01:46;9.70;99.90
38090;DHT22;23904;52.322;10.232;2023-12-29T06:04:11;9.70;99.90
38090;DHT22;23904;52.322;10.232;2023-12-29T06:06:37;9.70;99.90
38090;DHT22;23904;52.322;10.232;2023-12-29T06:09:02;9.70;99.90
38090;DHT22;23904;52.322;10.232;2023-12-29T06:11:28;9.70;99.90
38090;DHT22;23904;52.322;10.232;2023-12-29T06:13:53;9.60;99.90
38090;DHT22;23904;52.322;10.232;2023-12-29T06:16:20;9.70;99.90
38090;DHT22;23904;52.322;10.232;2023-12-29T06:18:46;9.70;99.90
38090;DHT22;23904;52.322;10.232;2023-12-29T06:21:12;9.70;99.90
38090;DHT22;23904;52.322;10.232;2023-12-29T06:23:38;9.70;99.90
38090;DHT22;23904;52.322;10.232;2023-12-29T06:26:03;9.70;99.90
38090;DHT22;23904;52.322;10.232;2023-12-29T06:28:29;9.60;99.90
38090;DHT22;23904;52.322;10.232;2023-12-29T06:30:54;9.60;99.90
38090;DHT22;23904;52.322;10.232;2023-12-29T06:33:20;9.70;99.90
38090;DHT22;23904;52.322;10.232;2023-12-29T06:35:47;9.70;99.90
38090;DHT22;23904;52.322;10.232;2023-12-29T06:38:13;9.70;99.90
38090;DHT22;23904;52.322;10.232;2023-12-29T06:40:39;9.70;99.90
38090;DHT22;23904;52.322;10.232;2023-12-29T06:43:05;9.70;99.90
38090;DHT22;23904;52.322;10.232;2023-12-29T06:45:31;9.70;99.90
38090;DHT22;23904;52.322;10.232;2023-12-29T06:47:56;9.70;99.90
38090;DHT22;23904;52.322;10.232;2023-12-29T06:50:22;9.80;99.90
38090;DHT22;23904;52.322;10.232;2023-12-29T06:52:48;9.80;99.90
38090;DHT22;23904;52.322;10.232;2023-12-29T06:55:13;9.90;99.90
38090;DHT22;23904;52.322;10.232;2023-12-29T06:57:39;9.90;99.90
38090;DHT22;23904;52.322;10.232;2023-12-29T07:00:05;9.90;99.90
38090;DHT22;23904;52.322;10.232;2023-12-29T07:02:31;9.90;99.90
38090;DHT22;23904;52.322;10.232;2023-12-29T07:04:57;10.00;99.90
38090;DHT22;23904;52.322;10.232;2023-12-29T07:07:23;10.00;99.90
38090;DHT22;23904;52.322;10.232;2023-12-29T07:09:49;10.00;99.90
38090;DHT22;23904;52.322;10.232;2023-12-29T07:12:14;10.10;99.90
38090;DHT22;23904;52.322;10.232;2023-12-29T07:14:41;10.10;99.90
38090;DHT22;23904;52.322;10.232;2023-12-29T07:17:07;10.20;99.90
38090;DHT22;23904;52.322;10.232;2023-12-29T07:19:32;10.20;99.90
38090;DHT22;23904;52.322;10.232;2023-12-29T07:22:04;10.20;99.90
38090;DHT22;23904;52.322;10.232;2023-12-29T07:24:32;10.20;99.90
38090;DHT22;23904;52.322;10.232;2023-12-29T07:26:58;10.20;99.90
38090;DHT22;23904;52.322;10.232;2023-12-29T07:29:24;10.20;99.90
38090;DHT22;23904;52.322;10.232;2023-12-29T07:31:49;10.20;99.90
38090;DHT22;23904;52.322;10.232;2023-12-29T07:34:15;10.20;99.90
38090;DHT22;23904;52.322;10.232;2023-12-29T07:36:40;10.30;99.90
38090;DHT22;23904;52.322;10.232;2023-12-29T07:39:06;10.30;99.90
38090;DHT22;23904;52.322;10.232;2023-12-29T07:41:32;10.30;99.90
38090;DHT22;23904;52.322;10.232;2023-12-29T07:43:58;10.40;99.90
38090;DHT22;23904;52.322;10.232;2023-12-29T07:46:26;10.40;99.90
38090;DHT22;23904;52.322;10.232;2023-12-29T07:48:52;10.50;99.90
38090;DHT22;23904;52.322;10.232;2023-12-29T07:51:18;10.50;99.90
38090;DHT22;23904;52.322;10.232;2023-12-29T07:53:44;10.50;99.90
38090;DHT22;23904;52.322;10.232;2023-12-29T07:56:10;10.50;99.90
38090;DHT22;23904;52.322;10.232;2023-12-29T07:58:36;10.50;99.90
38090;DHT22;23904;52.322;10.232;2023-12-29T08:01:01;10.50;99.90
38090;DHT22;23904;52.322;10.232;2023-12-29T08:03:27;10.50;99.90
38090;DHT22;23904;52.322;10.232;2023-12-29T08:05:52;10.50;99.90
38090;DHT22;23904;52.322;10.232;2023-12-29T08:08:18;10.60;99.90
38090;DHT22;23904;52.322;10.232;2023-12-29T08:10:43;10.60;99.90
38090;DHT22;23904;52.322;10.232;2023-12-29T08:13:09;10.60;99.90
38090;DHT22;23904;52.322;10.232;2023-12-29T08:15:35;10.70;99.90
38090;DHT22;23904;52.322;10.232;2023-12-29T08:18:01;10.70;99.90
38090;DHT22;23904;52.322;10.232;2023-12-29T08:20:26;10.70;99.90
38090;DHT22;23904;52.322;10.232;2023-12-29T08:22:52;10.70;99.90
38090;DHT22;23904;52.322;10.232;2023-12-29T08:25:17;10.70;99.90
38090;DHT22;23904;52.322;10.232;2023-12-29T08:27:43;10.60;99.90
38090;DHT22;23904;52.322;10.232;2023-12-29T08:30:09;10.60;99.90
38090;DHT22;23904;52.322;10.232;2023-12-29T08:32:35;10.60;99.90
38090;DHT22;23904;52.322;10.232;2023-12-29T08:35:00;10.60;99.90
38090;DHT22;23904;52.322;10.232;2023-12-29T08:37:26;10.60;99.90
38090;DHT22;23904;52.322;10.232;2023-12-29T08:39:51;10.60;99.90
38090;DHT22;23904;52.322;10.232;2023-12-29T08:42:17;10.60;99.90
38090;DHT22;23904;52.322;10.232;2023-12-29T08:44:43;10.60;99.90
38090;DHT22;23904;52.322;10.232;2023-12-29T08:47:08;10.60;99.90
38090;DHT22;23904;52.322;10.232;2023-12-29T08:49:36;10.70;99.90
38090;DHT22;23904;52.322;10.232;2023-12-29T08:52:03;10.70;99.90
38090;DHT22;23904;52.322;10.232;2023-12-29T08:54:29;10.70;99.90
38090;DHT22;23904;52.322;10.232;2023-12-29T08:56:55;10.70;99.90
38090;DHT22;23904;52.322;10.232;2023-12-29T08:59:20;10.70;99.90
38090;DHT22;23904;52.322;10.232;2023-12-29T09:01:46;10.80;99.90
38090;DHT22;23904;52.322;10.232;2023-12-29T09:04:12;10.90;99.90
38090;DHT22;23904;52.322;10.232;2023-12-29T09:06:38;10.90;99.90
38090;DHT22;23904;52.322;10.232;2023-12-29T09:09:03;10.90;99.90
38090;DHT22;23904;52.322;10.232;2023-12-29T09:11:29;10.90;99.90
38090;DHT22;23904;52.322;10.232;2023-12-29T09:13:54;11.00;99.90
38090;DHT22;23904;52.322;10.232;2023-12-29T09:16:20;11.00;99.90
38090;DHT22;23904;52.322;10.232;2023-12-29T09:18:46;11.00;99.90
38090;DHT22;23904;52.322;10.232;2023-12-29T09:21:11;11.00;99.90
38090;DHT22;23904;52.322;10.232;2023-12-29T09:23:37;11.00;99.90
38090;DHT22;23904;52.322;10.232;2023-12-29T09:26:04;11.00;99.90
38090;DHT22;23904;52.322;10.232;2023-12-29T09:28:32;11.00;99.90
38090;DHT22;23904;52.322;10.232;2023-12-29T09:30:58;11.10;99.90
38090;DHT22;23904;52.322;10.232;2023-12-29T09:33:24;11.10;99.90
38090;DHT22;23904;52.322;10.232;2023-12-29T09:35:50;11.10;99.90
38090;DHT22;23904;52.322;10.232;2023-12-29T09:38:16;11.10;99.90
38090;DHT22;23904;52.322;10.232;2023-12-29T09:40:41;11.10;99.90
38090;DHT22;23904;52.322;10.232;2023-12-29T09:43:09;11.10;99.90
38090;DHT22;23904;52.322;10.232;2023-12-29T09:45:37;11.00;99.90
38090;DHT22;23904;52.322;10.232;2023-12-29T09:48:10;11.00;99.90
38090;DHT22;23904;52.322;10.232;2023-12-29T09:50:37;10.90;99.90
38090;DHT22;23904;52.322;10.232;2023-12-29T09:53:04;10.90;99.90
38090;DHT22;23904;52.322;10.232;2023-12-29T09:55:30;10.80;99.90
38090;DHT22;23904;52.322;10.232;2023-12-29T09:57:59;10.70;99.90
38090;DHT22;23904;52.322;10.232;2023-12-29T10:00:25;10.60;99.90
38090;DHT22;23904;52.322;10.232;2023-12-29T10:02:52;10.50;99.90
38090;DHT22;23904;52.322;10.232;2023-12-29T10:05:20;10.50;99.90
38090;DHT22;23904;52.322;10.232;2023-12-29T10:07:47;10.50;99.90
38090;DHT22;23904;52.322;10.232;2023-12-29T10:10:16;10.30;99.90
38090;DHT22;23904;52.322;10.232;2023-12-29T10:12:43;10.20;99.90
38090;DHT22;23904;52.322;10.232;2023-12-29T10:15:34;10.00;99.90
38090;DHT22;23904;52.322;10.232;2023-12-29T10:21:28;9.60;99.90
38090;DHT22;23904;52.322;10.232;2023-12-29T10:24:02;9.40;99.90
38090;DHT22;23904;52.322;10.232;2023-12-29T10:26:31;9.30;99.90
38090;DHT22;23904;52.322;10.232;2023-12-29T10:28:57;9.20;99.90
38090;DHT22;23904;52.322;10.232;2023-12-29T10:31:24;9.10;99.90
38090;DHT22;23904;52.322;10.232;2023-12-29T10:33:51;9.10;99.90
38090;DHT22;23904;52.322;10.232;2023-12-29T10:36:17;9.00;99.90
38090;DHT22;23904;52.322;10.232;2023-12-29T10:38:43;9.00;99.90
38090;DHT22;23904;52.322;10.232;2023-12-29T10:41:11;9.00;99.90
38090;DHT22;23904;52.322;10.232;2023-12-29T10:43:38;9.00;99.90
38090;DHT22;23904;52.322;10.232;2023-12-29T10:46:07;9.00;99.90
38090;DHT22;23904;52.322;10.232;2023-12-29T10:48:34;9.00;99.90
38090;DHT22;23904;52.322;10.232;2023-12-29T10:51:01;9.00;99.90
38090;DHT22;23904;52.322;10.232;2023-12-29T10:53:29;9.00;99.90
38090;DHT22;23904;52.322;10.232;2023-12-29T10:55:57;9.00;99.90
38090;DHT22;23904;52.322;10.232;2023-12-29T10:58:27;9.00;99.90
38090;DHT22;23904;52.322;10.232;2023-12-29T11:00:55;9.00;99.90
38090;DHT22;23904;52.322;10.232;2023-12-29T11:03:21;9.00;99.90
38090;DHT22;23904;52.322;10.232;2023-12-29T11:05:47;8.90;99.90
38090;DHT22;23904;52.322;10.232;2023-12-29T11:08:20;8.90;99.90
38090;DHT22;23904;52.322;10.232;2023-12-29T11:10:48;9.00;99.90
38090;DHT22;23904;52.322;10.232;2023-12-29T11:13:14;9.00;99.90
38090;DHT22;23904;52.322;10.232;2023-12-29T11:15:46;9.00;99.90
38090;DHT22;23904;52.322;10.232;2023-12-29T11:18:17;9.00;99.90
38090;DHT22;23904;52.322;10.232;2023-12-29T11:20:45;9.10;99.90
38090;DHT22;23904;52.322;10.232;2023-12-29T11:23:12;9.10;99.90
38090;DHT22;23904;52.322;10.232;2023-12-29T11:25:41;9.20;99.90
38090;DHT22;23904;52.322;10.232;2023-12-29T11:28:11;9.20;99.90
38090;DHT22;23904;52.322;10.232;2023-12-29T11:30:37;9.30;99.90
38090;DHT22;23904;52.322;10.232;2023-12-29T11:33:10;9.40;99.90
38090;DHT22;23904;52.322;10.232;2023-12-29T11:35:44;9.40;99.90
38090;DHT22;23904;52.322;10.232;2023-12-29T11:44:49;9.70;99.90
38090;DHT22;23904;52.322;10.232;2023-12-29T11:47:35;9.80;99.90
38090;DHT22;23904;52.322;10.232;2023-12-29T11:50:02;9.80;99.90
38090;DHT22;23904;52.322;10.232;2023-12-29T11:55:13;9.90;99.90
38090;DHT22;23904;52.322;10.232;2023-12-29T11:57:45;10.00;99.90
38090;DHT22;23904;52.322;10.232;2023-12-29T12:00:11;10.00;99.90
38090;DHT22;23904;52.322;10.232;2023-12-29T12:02:37;10.10;99.90
38090;DHT22;23904;52.322;10.232;2023-12-29T12:05:03;10.20;99.90
38090;DHT22;23904;52.322;10.232;2023-12-29T12:10:28;10.30;99.90
38090;DHT22;23904;52.322;10.232;2023-12-29T12:12:58;10.30;99.90
38090;DHT22;23904;52.322;10.232;2023-12-29T12:18:14;10.30;99.90
38090;DHT22;23904;52.322;10.232;2023-12-29T12:20:39;10.30;99.90
38090;DHT22;23904;52.322;10.232;2023-12-29T12:23:11;10.40;99.90
38090;DHT22;23904;52.322;10.232;2023-12-29T12:25:39;10.40;99.90
38090;DHT22;23904;52.322;10.232;2023-12-29T12:28:05;10.40;99.90
38090;DHT22;23904;52.322;10.232;2023-12-29T12:30:33;10.50;99.90
38090;DHT22;23904;52.322;10.232;2023-12-29T12:33:01;10.50;99.90
38090;DHT22;23904;52.322;10.232;2023-12-29T12:35:28;10.50;99.90
38090;DHT22;23904;52.322;10.232;2023-12-29T12:38:14;10.50;99.90
38090;DHT22;23904;52.322;10.232;2023-12-29T12:40:46;10.50;99.90
38090;DHT22;23904;52.322;10.232;2023-12-29T12:43:15;10.50;99.90
38090;DHT22;23904;52.322;10.232;2023-12-29T12:45:52;10.60;99.90
38090;DHT22;23904;52.322;10.232;2023-12-29T12:48:23;10.60;99.90
38090;DHT22;23904;52.322;10.232;2023-12-29T12:50:55;10.50;99.90
38090;DHT22;23904;52.322;10.232;2023-12-29T12:53:23;10.50;99.90
38090;DHT22;23904;52.322;10.232;2023-12-29T12:55:49;10.40;99.90
38090;DHT22;23904;52.322;10.232;2023-12-29T12:58:17;10.30;99.90
38090;DHT22;23904;52.322;10.232;2023-12-29T13:00:45;10.40;99.90
38090;DHT22;23904;52.322;10.232;2023-12-29T13:03:11;10.30;99.90
38090;DHT22;23904;52.322;10.232;2023-12-29T13:05:37;10.10;99.90
38090;DHT22;23904;52.322;10.232;2023-12-29T13:08:03;10.00;99.90
38090;DHT22;23904;52.322;10.232;2023-12-29T13:10:30;10.00;99.90
38090;DHT22;23904;52.322;10.232;2023-12-29T13:12:56;10.00;99.90
38090;DHT22;23904;52.322;10.232;2023-12-29T13:15:22;10.00;99.90
38090;DHT22;23904;52.322;10.232;2023-12-29T13:17:54;10.10;99.90
38090;DHT22;23904;52.322;10.232;2023-12-29T13:20:20;10.10;99.90
38090;DHT22;23904;52.322;10.232;2023-12-29T13:22:47;10.10;99.90
38090;DHT22;23904;52.322;10.232;2023-12-29T13:25:23;10.20;99.90
38090;DHT22;23904;52.322;10.232;2023-12-29T13:27:50;10.30;99.90
38090;DHT22;23904;52.322;10.232;2023-12-29T13:30:18;10.30;99.90
38090;DHT22;23904;52.322;10.232;2023-12-29T13:32:45;10.40;99.90
38090;DHT22;23904;52.322;10.232;2023-12-29T13:35:23;10.40;99.90
38090;DHT22;23904;52.322;10.232;2023-12-29T13:38:08;10.40;99.90
38090;DHT22;23904;52.322;10.232;2023-12-29T13:40:47;10.40;99.90
38090;DHT22;23904;52.322;10.232;2023-12-29T13:43:20;10.40;99.90
38090;DHT22;23904;52.322;10.232;2023-12-29T13:45:47;10.40;99.90
38090;DHT22;23904;52.322;10.232;2023-12-29T13:48:13;10.40;99.90
38090;DHT22;23904;52.322;10.232;2023-12-29T13:50:40;10.40;99.90
38090;DHT22;23904;52.322;10.232;2023-12-29T13:53:17;10.50;99.90
38090;DHT22;23904;52.322;10.232;2023-12-29T13:55:43;10.60;99.90
38090;DHT22;23904;52.322;10.232;2023-12-29T13:58:10;10.60;99.90
38090;DHT22;23904;52.322;10.232;2023-12-29T14:00:37;10.60;99.90
38090;DHT22;23904;52.322;10.232;2023-12-29T14:03:06;10.60;99.90
38090;DHT22;23904;52.322;10.232;2023-12-29T14:08:31;10.50;99.90
38090;DHT22;23904;52.322;10.232;2023-12-29T14:11:00;10.50;99.90
38090;DHT22;23904;52.322;10.232;2023-12-29T14:13:26;10.50;99.90
38090;DHT22;23904;52.322;10.232;2023-12-29T14:15:52;10.50;99.90
38090;DHT22;23904;52.322;10.232;2023-12-29T14:20:58;10.50;99.90
38090;DHT22;23904;52.322;10.232;2023-12-29T14:23:23;10.50;99.90
38090;DHT22;23904;52.322;10.232;2023-12-29T14:25:49;10.60;99.90
38090;DHT22;23904;52.322;10.232;2023-12-29T14:28:16;10.50;99.90
38090;DHT22;23904;52.322;10.232;2023-12-29T14:30:43;10.50;99.90
38090;DHT22;23904;52.322;10.232;2023-12-29T14:33:09;10.50;99.90
38090;DHT22;23904;52.322;10.232;2023-12-29T14:35:35;10.50;99.90
38090;DHT22;23904;52.322;10.232;2023-12-29T14:38:01;10.50;99.90
38090;DHT22;23904;52.322;10.232;2023-12-29T14:40:27;10.40;99.90
38090;DHT22;23904;52.322;10.232;2023-12-29T14:42:52;10.40;99.90
38090;DHT22;23904;52.322;10.232;2023-12-29T14:45:18;10.50;99.90
38090;DHT22;23904;52.322;10.232;2023-12-29T14:47:44;10.50;99.90
38090;DHT22;23904;52.322;10.232;2023-12-29T14:50:11;10.50;99.90
38090;DHT22;23904;52.322;10.232;2023-12-29T14:52:37;10.50;99.90
38090;DHT22;23904;52.322;10.232;2023-12-29T14:55:03;10.50;99.90
38090;DHT22;23904;52.322;10.232;2023-12-29T14:57:29;10.50;99.90
38090;DHT22;23904;52.322;10.232;2023-12-29T14:59:55;10.50;99.90
38090;DHT22;23904;52.322;10.232;2023-12-29T15:02:21;10.40;99.90
38090;DHT22;23904;52.322;10.232;2023-12-29T15:04:46;10.50;99.90
38090;DHT22;23904;52.322;10.232;2023-12-29T15:07:14;10.50;99.90
38090;DHT22;23904;52.322;10.232;2023-12-29T15:09:39;10.50;99.90
38090;DHT22;23904;52.322;10.232;2023-12-29T15:12:05;10.40;99.90
38090;DHT22;23904;52.322;10.232;2023-12-29T15:14:31;10.40;99.90
38090;DHT22;23904;52.322;10.232;2023-12-29T15:16:57;10.40;99.90
38090;DHT22;23904;52.322;10.232;2023-12-29T15:19:22;10.40;99.90
38090;DHT22;23904;52.322;10.232;2023-12-29T15:21:48;10.30;99.90
38090;DHT22;23904;52.322;10.232;2023-12-29T15:24:18;10.30;99.90
38090;DHT22;23904;52.322;10.232;2023-12-29T15:26:45;10.40;99.90
38090;DHT22;23904;52.322;10.232;2023-12-29T15:29:11;10.40;99.90
38090;DHT22;23904;52.322;10.232;2023-12-29T15:31:36;10.40;99.90
38090;DHT22;23904;52.322;10.232;2023-12-29T15:34:02;10.40;99.90
38090;DHT22;23904;52.322;10.232;2023-12-29T15:36:27;10.50;99.90
38090;DHT22;23904;52.322;10.232;2023-12-29T15:38:53;10.50;99.90
38090;DHT22;23904;52.322;10.232;2023-12-29T15:41:18;10.40;99.90
38090;DHT22;23904;52.322;10.232;2023-12-29T15:43:44;10.40;99.90
38090;DHT22;23904;52.322;10.232;2023-12-29T15:46:18;10.40;99.90